sensor_id;sensor_type;location;lat;lon;timestamp;P1;durP1;ratioP1;P2;durP2;ratioP2
54561;SDS011;69047;53.358;-1.486;2023-10-31T17:11:09;24.20;;;14.07;;
54561;SDS011;69047;53.358;-1.486;2023-10-31T17:13:35;22.23;;;12.98;;
54561;SDS011;69047;53.358;-1.486;2023-10-31T17:16:02;20.75;;;11.50;;
54561;SDS011;69047;53.358;-1.486;2023-10-31T17:18:28;22.70;;;11.90;;
54561;SDS011;69047;53.358;-1.486;2023-10-31T17:20:55;23.13;;;13.65;;
54561;SDS011;69047;53.358;-1.486;2023-10-31T17:23:21;21.30;;;13.07;;
54561;SDS011;69047;53.358;-1.486;2023-10-31T17:25:48;23.83;;;13.93;;
54561;SDS011;69047;53.358;-1.486;2023-10-31T17:28:14;23.77;;;14.45;;
54561;SDS011;69047;53.358;-1.486;2023-10-31T17:30:40;29.02;;;14.65;;
54561;SDS011;69047;53.358;-1.486;2023-10-31T17:33:05;26.75;;;14.73;;
54561;SDS011;69047;53.358;-1.486;2023-10-31T17:35:30;30.73;;;17.13;;
54561;SDS011;69047;53.358;-1.486;2023-10-31T17:37:56;44.58;;;25.23;;
54561;SDS011;69047;53.358;-1.486;2023-10-31T17:40:21;46.13;;;29.10;;
54561;SDS011;69047;53.358;-1.486;2023-10-31T17:42:50;29.75;;;16.63;;
54561;SDS011;69047;53.358;-1.486;2023-10-31T17:45:20;37.45;;;20.23;;
54561;SDS011;69047;53.358;-1.486;2023-10-31T17:47:56;31.17;;;16.80;;
54561;SDS011;69047;53.358;-1.486;2023-10-31T17:50:23;38.38;;;19.00;;
54561;SDS011;69047;53.358;-1.486;2023-10-31T17:52:49;36.17;;;19.90;;
54561;SDS011;69047;53.358;-1.486;2023-10-31T17:55:14;31.05;;;18.40;;
54561;SDS011;69047;53.358;-1.486;2023-10-31T17:57:44;27.55;;;15.50;;
54561;SDS011;69047;53.358;-1.486;2023-10-31T18:00:09;27.17;;;14.88;;
54561;SDS011;69047;53.358;-1.486;2023-10-31T18:02:36;32.95;;;16.25;;
54561;SDS011;69047;53.358;-1.486;2023-10-31T18:05:01;24.40;;;14.30;;
54561;SDS011;69047;53.358;-1.486;2023-10-31T18:07:29;28.52;;;14.80;;
54561;SDS011;69047;53.358;-1.486;2023-10-31T18:09:54;29.52;;;15.57;;
54561;SDS011;69047;53.358;-1.486;2023-10-31T18:12:21;32.92;;;17.00;;
54561;SDS011;69047;53.358;-1.486;2023-10-31T18:14:47;27.88;;;15.18;;
54561;SDS011;69047;53.358;-1.486;2023-10-31T18:17:14;23.70;;;13.48;;
54561;SDS011;69047;53.358;-1.486;2023-10-31T18:19:39;28.23;;;14.68;;
54561;SDS011;69047;53.358;-1.486;2023-10-31T18:22:04;23.50;;;13.43;;
54561;SDS011;69047;53.358;-1.486;2023-10-31T18:24:30;24.95;;;13.55;;
54561;SDS011;69047;53.358;-1.486;2023-10-31T18:26:56;22.90;;;13.50;;
54561;SDS011;69047;53.358;-1.486;2023-10-31T18:29:21;25.00;;;14.85;;
54561;SDS011;69047;53.358;-1.486;2023-10-31T18:31:47;24.17;;;14.32;;
54561;SDS011;69047;53.358;-1.486;2023-10-31T18:34:18;24.48;;;14.13;;
54561;SDS011;69047;53.358;-1.486;2023-10-31T18:36:56;27.90;;;16.77;;
54561;SDS011;69047;53.358;-1.486;2023-10-31T18:39:21;31.55;;;16.50;;
54561;SDS011;69047;53.358;-1.486;2023-10-31T18:41:46;31.60;;;17.15;;
54561;SDS011;69047;53.358;-1.486;2023-10-31T18:44:12;32.75;;;16.75;;
54561;SDS011;69047;53.358;-1.486;2023-10-31T18:46:37;31.65;;;17.20;;
54561;SDS011;69047;53.358;-1.486;2023-10-31T18:49:03;34.47;;;19.05;;
54561;SDS011;69047;53.358;-1.486;2023-10-31T18:51:28;33.33;;;18.25;;
54561;SDS011;69047;53.358;-1.486;2023-10-31T18:53:54;41.28;;;19.40;;
54561;SDS011;69047;53.358;-1.486;2023-10-31T18:56:19;38.70;;;19.38;;
54561;SDS011;69047;53.358;-1.486;2023-10-31T18:58:44;40.55;;;19.73;;
54561;SDS011;69047;53.358;-1.486;2023-10-31T19:01:10;45.33;;;22.02;;
54561;SDS011;69047;53.358;-1.486;2023-10-31T19:03:36;41.20;;;20.48;;
54561;SDS011;69047;53.358;-1.486;2023-10-31T19:06:01;44.13;;;22.83;;
54561;SDS011;69047;53.358;-1.486;2023-10-31T19:08:30;47.40;;;21.25;;
54561;SDS011;69047;53.358;-1.486;2023-10-31T19:11:16;35.45;;;20.23;;
54561;SDS011;69047;53.358;-1.486;2023-10-31T19:13:42;47.97;;;22.35;;
54561;SDS011;69047;53.358;-1.486;2023-10-31T19:16:10;45.97;;;23.40;;
54561;SDS011;69047;53.358;-1.486;2023-10-31T19:18:36;50.45;;;24.23;;
54561;SDS011;69047;53.358;-1.486;2023-10-31T19:21:02;60.03;;;25.42;;
54561;SDS011;69047;53.358;-1.486;2023-10-31T19:23:27;52.63;;;25.98;;
54561;SDS011;69047;53.358;-1.486;2023-10-31T19:25:53;68.63;;;28.33;;
54561;SDS011;69047;53.358;-1.486;2023-10-31T19:28:19;59.47;;;27.38;;
54561;SDS011;69047;53.358;-1.486;2023-10-31T19:30:46;61.95;;;27.80;;
54561;SDS011;69047;53.358;-1.486;2023-10-31T19:33:11;60.45;;;26.48;;
54561;SDS011;69047;53.358;-1.486;2023-10-31T19:35:37;72.88;;;29.80;;
54561;SDS011;69047;53.358;-1.486;2023-10-31T19:38:02;63.03;;;28.70;;
54561;SDS011;69047;53.358;-1.486;2023-10-31T19:40:27;78.38;;;31.25;;
54561;SDS011;69047;53.358;-1.486;2023-10-31T19:42:53;80.22;;;30.73;;
54561;SDS011;69047;53.358;-1.486;2023-10-31T19:45:23;70.25;;;30.75;;
54561;SDS011;69047;53.358;-1.486;2023-10-31T19:48:01;63.40;;;30.52;;
54561;SDS011;69047;53.358;-1.486;2023-10-31T19:50:27;78.07;;;31.45;;
54561;SDS011;69047;53.358;-1.486;2023-10-31T19:52:53;115.85;;;35.50;;
54561;SDS011;69047;53.358;-1.486;2023-10-31T19:55:18;104.75;;;36.15;;
54561;SDS011;69047;53.358;-1.486;2023-10-31T19:57:45;103.43;;;36.15;;
54561;SDS011;69047;53.358;-1.486;2023-10-31T20:00:12;92.97;;;35.30;;
54561;SDS011;69047;53.358;-1.486;2023-10-31T20:02:37;121.18;;;39.80;;
54561;SDS011;69047;53.358;-1.486;2023-10-31T20:05:03;107.88;;;39.97;;
54561;SDS011;69047;53.358;-1.486;2023-10-31T20:07:28;105.78;;;38.25;;
54561;SDS011;69047;53.358;-1.486;2023-10-31T20:09:54;93.53;;;36.97;;
54561;SDS011;69047;53.358;-1.486;2023-10-31T20:12:19;111.82;;;40.25;;
54561;SDS011;69047;53.358;-1.486;2023-10-31T20:14:45;104.25;;;38.30;;
54561;SDS011;69047;53.358;-1.486;2023-10-31T20:17:10;112.63;;;41.78;;
54561;SDS011;69047;53.358;-1.486;2023-10-31T20:19:35;116.18;;;46.42;;
54561;SDS011;69047;53.358;-1.486;2023-10-31T20:22:01;128.95;;;44.33;;
54561;SDS011;69047;53.358;-1.486;2023-10-31T20:24:26;128.50;;;43.25;;
54561;SDS011;69047;53.358;-1.486;2023-10-31T20:26:51;119.50;;;40.50;;
54561;SDS011;69047;53.358;-1.486;2023-10-31T20:29:17;126.45;;;43.60;;
54561;SDS011;69047;53.358;-1.486;2023-10-31T20:31:42;126.60;;;41.95;;
54561;SDS011;69047;53.358;-1.486;2023-10-31T20:34:17;150.02;;;43.25;;
54561;SDS011;69047;53.358;-1.486;2023-10-31T20:36:48;153.05;;;47.80;;
54561;SDS011;69047;53.358;-1.486;2023-10-31T20:39:13;165.13;;;47.47;;
54561;SDS011;69047;53.358;-1.486;2023-10-31T20:41:40;172.73;;;49.20;;
54561;SDS011;69047;53.358;-1.486;2023-10-31T20:44:06;143.82;;;45.70;;
54561;SDS011;69047;53.358;-1.486;2023-10-31T20:46:31;148.90;;;46.35;;
54561;SDS011;69047;53.358;-1.486;2023-10-31T20:48:57;191.27;;;46.33;;
54561;SDS011;69047;53.358;-1.486;2023-10-31T20:51:22;232.70;;;47.83;;
54561;SDS011;69047;53.358;-1.486;2023-10-31T20:53:47;210.52;;;50.65;;
54561;SDS011;69047;53.358;-1.486;2023-10-31T20:56:13;168.98;;;44.45;;
54561;SDS011;69047;53.358;-1.486;2023-10-31T20:58:38;154.15;;;43.78;;
54561;SDS011;69047;53.358;-1.486;2023-10-31T21:01:04;179.27;;;48.95;;
54561;SDS011;69047;53.358;-1.486;2023-10-31T21:03:29;189.45;;;45.78;;
54561;SDS011;69047;53.358;-1.486;2023-10-31T21:05:55;200.73;;;50.03;;
54561;SDS011;69047;53.358;-1.486;2023-10-31T21:08:20;199.77;;;50.17;;
54561;SDS011;69047;53.358;-1.486;2023-10-31T21:10:46;208.85;;;48.65;;
54561;SDS011;69047;53.358;-1.486;2023-10-31T21:13:11;211.35;;;51.03;;
54561;SDS011;69047;53.358;-1.486;2023-10-31T21:15:36;272.33;;;51.50;;
54561;SDS011;69047;53.358;-1.486;2023-10-31T21:18:02;296.50;;;54.05;;
54561;SDS011;69047;53.358;-1.486;2023-10-31T21:20:27;376.38;;;54.95;;
54561;SDS011;69047;53.358;-1.486;2023-10-31T21:22:53;304.23;;;53.97;;
54561;SDS011;69047;53.358;-1.486;2023-10-31T21:25:19;271.10;;;51.00;;
54561;SDS011;69047;53.358;-1.486;2023-10-31T21:27:44;294.67;;;55.45;;
54561;SDS011;69047;53.358;-1.486;2023-10-31T21:30:22;348.02;;;56.45;;
54561;SDS011;69047;53.358;-1.486;2023-10-31T21:32:48;331.60;;;55.00;;
54561;SDS011;69047;53.358;-1.486;2023-10-31T21:35:13;334.40;;;53.55;;
54561;SDS011;69047;53.358;-1.486;2023-10-31T21:37:43;359.40;;;53.75;;
54561;SDS011;69047;53.358;-1.486;2023-10-31T21:40:08;526.50;;;62.15;;
54561;SDS011;69047;53.358;-1.486;2023-10-31T21:42:34;549.90;;;67.25;;
54561;SDS011;69047;53.358;-1.486;2023-10-31T21:45:00;472.77;;;60.00;;
54561;SDS011;69047;53.358;-1.486;2023-10-31T21:47:26;399.48;;;52.78;;
54561;SDS011;69047;53.358;-1.486;2023-10-31T21:49:51;581.35;;;66.35;;
54561;SDS011;69047;53.358;-1.486;2023-10-31T21:52:17;413.13;;;57.05;;
54561;SDS011;69047;53.358;-1.486;2023-10-31T21:54:43;340.33;;;53.63;;
54561;SDS011;69047;53.358;-1.486;2023-10-31T21:57:08;283.98;;;47.45;;
54561;SDS011;69047;53.358;-1.486;2023-10-31T21:59:34;462.80;;;69.50;;
54561;SDS011;69047;53.358;-1.486;2023-10-31T22:01:59;313.65;;;48.88;;
54561;SDS011;69047;53.358;-1.486;2023-10-31T22:04:26;337.75;;;51.60;;
54561;SDS011;69047;53.358;-1.486;2023-10-31T22:06:51;283.98;;;45.17;;
54561;SDS011;69047;53.358;-1.486;2023-10-31T22:09:16;304.10;;;50.15;;
54561;SDS011;69047;53.358;-1.486;2023-10-31T22:11:43;221.18;;;53.40;;
54561;SDS011;69047;53.358;-1.486;2023-10-31T22:14:19;214.10;;;42.30;;
54561;SDS011;69047;53.358;-1.486;2023-10-31T22:16:50;185.35;;;41.75;;
54561;SDS011;69047;53.358;-1.486;2023-10-31T22:19:15;277.75;;;53.28;;
54561;SDS011;69047;53.358;-1.486;2023-10-31T22:21:41;261.75;;;52.33;;
54561;SDS011;69047;53.358;-1.486;2023-10-31T22:24:07;256.85;;;55.65;;
54561;SDS011;69047;53.358;-1.486;2023-10-31T22:26:32;220.85;;;43.60;;
54561;SDS011;69047;53.358;-1.486;2023-10-31T22:28:58;267.58;;;48.28;;
54561;SDS011;69047;53.358;-1.486;2023-10-31T22:31:24;183.75;;;41.95;;
54561;SDS011;69047;53.358;-1.486;2023-10-31T22:33:49;180.85;;;41.03;;
54561;SDS011;69047;53.358;-1.486;2023-10-31T22:36:14;211.45;;;41.25;;
54561;SDS011;69047;53.358;-1.486;2023-10-31T22:38:40;177.27;;;40.80;;
54561;SDS011;69047;53.358;-1.486;2023-10-31T22:41:05;145.13;;;40.80;;
54561;SDS011;69047;53.358;-1.486;2023-10-31T22:43:31;165.00;;;39.22;;
54561;SDS011;69047;53.358;-1.486;2023-10-31T22:45:57;177.32;;;41.95;;
54561;SDS011;69047;53.358;-1.486;2023-10-31T22:48:24;169.48;;;37.53;;
54561;SDS011;69047;53.358;-1.486;2023-10-31T22:50:50;225.80;;;42.50;;
54561;SDS011;69047;53.358;-1.486;2023-10-31T22:53:16;199.68;;;41.30;;
54561;SDS011;69047;53.358;-1.486;2023-10-31T22:55:41;170.07;;;38.05;;
54561;SDS011;69047;53.358;-1.486;2023-10-31T22:58:07;180.02;;;39.17;;
54561;SDS011;69047;53.358;-1.486;2023-10-31T23:00:35;158.73;;;39.60;;
54561;SDS011;69047;53.358;-1.486;2023-10-31T23:03:01;132.70;;;36.20;;
54561;SDS011;69047;53.358;-1.486;2023-10-31T23:05:28;159.82;;;38.97;;
54561;SDS011;69047;53.358;-1.486;2023-10-31T23:07:54;126.75;;;34.65;;
54561;SDS011;69047;53.358;-1.486;2023-10-31T23:10:20;175.02;;;36.90;;
54561;SDS011;69047;53.358;-1.486;2023-10-31T23:12:50;163.30;;;34.17;;
54561;SDS011;69047;53.358;-1.486;2023-10-31T23:15:16;193.43;;;37.83;;
54561;SDS011;69047;53.358;-1.486;2023-10-31T23:17:42;167.38;;;39.65;;
54561;SDS011;69047;53.358;-1.486;2023-10-31T23:20:08;156.15;;;36.10;;
54561;SDS011;69047;53.358;-1.486;2023-10-31T23:22:35;230.35;;;40.58;;
54561;SDS011;69047;53.358;-1.486;2023-10-31T23:25:02;248.18;;;41.80;;
54561;SDS011;69047;53.358;-1.486;2023-10-31T23:27:29;218.23;;;38.90;;
54561;SDS011;69047;53.358;-1.486;2023-10-31T23:29:55;263.00;;;43.22;;
54561;SDS011;69047;53.358;-1.486;2023-10-31T23:32:25;231.27;;;41.42;;
54561;SDS011;69047;53.358;-1.486;2023-10-31T23:34:53;330.02;;;48.83;;
54561;SDS011;69047;53.358;-1.486;2023-10-31T23:37:19;212.55;;;41.88;;
54561;SDS011;69047;53.358;-1.486;2023-10-31T23:39:44;258.90;;;42.50;;
54561;SDS011;69047;53.358;-1.486;2023-10-31T23:42:10;263.83;;;45.55;;
54561;SDS011;69047;53.358;-1.486;2023-10-31T23:44:35;387.45;;;47.63;;
54561;SDS011;69047;53.358;-1.486;2023-10-31T23:47:01;208.43;;;42.22;;
54561;SDS011;69047;53.358;-1.486;2023-10-31T23:49:26;249.40;;;43.63;;
54561;SDS011;69047;53.358;-1.486;2023-10-31T23:51:54;226.10;;;40.55;;
54561;SDS011;69047;53.358;-1.486;2023-10-31T23:54:21;332.55;;;45.95;;
54561;SDS011;69047;53.358;-1.486;2023-10-31T23:56:57;275.90;;;43.17;;
54561;SDS011;69047;53.358;-1.486;2023-10-31T23:59:27;209.93;;;39.90;;
